createdAt,value
2023-04-27T00:02:06.886Z,99437.00
2023-04-27T00:04:35.132Z,99451.09
2023-04-27T00:07:03.163Z,99452.38
2023-04-27T00:09:32.490Z,99463.69
2023-04-27T00:12:00.405Z,99463.78
2023-04-27T00:14:28.887Z,99469.78
2023-04-27T00:16:56.896Z,99467.19
2023-04-27T00:19:24.812Z,99473.88
2023-04-27T00:21:52.732Z,99472.63
2023-04-27T00:24:20.690Z,99470.78
2023-04-27T00:26:49.969Z,99470.78
2023-04-27T00:29:17.952Z,99472.94
2023-04-27T00:31:45.934Z,99473.75
2023-04-27T00:34:13.848Z,99482.00
2023-04-27T00:36:41.743Z,99487.31
2023-04-27T00:39:09.756Z,99493.06
2023-04-27T00:41:39.314Z,99487.97
2023-04-27T00:44:08.729Z,99492.97
2023-04-27T00:46:37.072Z,99491.84
2023-04-27T00:49:04.962Z,99489.56
2023-04-27T00:51:32.978Z,99500.94
2023-04-27T00:54:01.317Z,99506.69
2023-04-27T00:56:29.223Z,99509.19
2023-04-27T00:58:57.257Z,99510.56
2023-04-27T01:01:27.020Z,99516.78
2023-04-27T01:03:55.172Z,99518.44
2023-04-27T01:06:23.292Z,99527.69
2023-04-27T01:08:51.666Z,99518.34
2023-04-27T01:11:20.037Z,99530.38
2023-04-27T01:13:47.981Z,99532.81
2023-04-27T01:16:16.031Z,99537.81
2023-04-27T01:18:45.624Z,99533.00
2023-04-27T01:21:13.594Z,99541.25
2023-04-27T01:23:42.918Z,99545.50
2023-04-27T01:26:12.011Z,99553.00
2023-04-27T01:28:39.935Z,99556.16
2023-04-27T01:31:07.892Z,99562.66
2023-04-27T01:33:35.833Z,99570.13
2023-04-27T01:36:03.824Z,99556.06
2023-04-27T01:38:31.771Z,99565.34
2023-04-27T01:41:02.121Z,99574.63
2023-04-27T01:43:30.085Z,99570.25
2023-04-27T01:45:58.037Z,99570.44
2023-04-27T01:48:26.024Z,99572.47
2023-04-27T01:50:54.153Z,99579.16
2023-04-27T01:53:22.074Z,99579.31
2023-04-27T01:55:50.036Z,99577.88
2023-04-27T01:58:19.308Z,99586.53
2023-04-27T02:00:47.264Z,99586.53
2023-04-27T02:03:15.330Z,99594.06
2023-04-27T02:05:43.317Z,99592.88
2023-04-27T02:08:11.250Z,99589.19
2023-04-27T02:10:39.204Z,99589.97
2023-04-27T02:13:07.135Z,99586.94
2023-04-27T02:15:36.630Z,99590.59
2023-04-27T02:18:04.779Z,99587.97
2023-04-27T02:20:32.963Z,99587.72
2023-04-27T02:23:01.097Z,99581.75
2023-04-27T02:25:29.078Z,99590.88
2023-04-27T02:27:57.217Z,99589.16
2023-04-27T02:30:25.661Z,99591.88
2023-04-27T02:32:55.579Z,99589.78
2023-04-27T02:35:23.591Z,99591.13
2023-04-27T02:37:51.660Z,99603.38
2023-04-27T02:40:19.657Z,99602.03
2023-04-27T02:42:47.601Z,99595.81
2023-04-27T02:45:15.519Z,99603.34
2023-04-27T02:47:43.536Z,99607.03
2023-04-27T02:50:13.780Z,99608.22
2023-04-27T02:52:41.695Z,99608.69
2023-04-27T02:55:10.387Z,99614.38
2023-04-27T02:57:38.344Z,99612.38
2023-04-27T03:00:09.244Z,99611.88
2023-04-27T03:02:37.255Z,99612.38
2023-04-27T03:05:06.009Z,99617.03
2023-04-27T03:07:35.327Z,99616.34
2023-04-27T03:10:03.373Z,99619.53
2023-04-27T03:12:31.304Z,99620.72
2023-04-27T03:14:59.756Z,99629.09
2023-04-27T03:17:27.685Z,99631.44
2023-04-27T03:19:55.634Z,99627.75
2023-04-27T03:22:23.628Z,99635.81
2023-04-27T03:24:52.908Z,99632.50
2023-04-27T03:27:20.870Z,99643.22
2023-04-27T03:29:48.805Z,99636.91
2023-04-27T03:32:16.730Z,99642.38
2023-04-27T03:34:44.654Z,99648.09
2023-04-27T03:37:12.569Z,99653.25
2023-04-27T03:39:40.675Z,99658.16
2023-04-27T03:42:09.951Z,99660.16
2023-04-27T03:44:37.885Z,99654.97
2023-04-27T03:47:09.204Z,99657.97
2023-04-27T03:49:37.198Z,99651.28
2023-04-27T03:52:05.543Z,99657.66
2023-04-27T03:54:33.478Z,99656.47
2023-04-27T03:57:02.666Z,99659.28
2023-04-27T03:59:32.073Z,99662.63
2023-04-27T04:02:01.434Z,99666.63
2023-04-27T04:04:29.730Z,99671.66
2023-04-27T04:06:57.798Z,99674.16
2023-04-27T04:09:25.845Z,99672.97
2023-04-27T04:11:53.776Z,99672.97
2023-04-27T04:14:21.727Z,99671.97
2023-04-27T04:16:51.016Z,99680.03
2023-04-27T04:19:20.173Z,99680.38
2023-04-27T04:21:49.866Z,99683.84
2023-04-27T04:24:17.817Z,99681.31
2023-04-27T04:26:45.928Z,99680.66
2023-04-27T04:29:14.056Z,99681.31
2023-04-27T04:31:42.345Z,99688.88
2023-04-27T04:34:11.702Z,99684.69
2023-04-27T04:36:39.610Z,99678.47
2023-04-27T04:39:07.653Z,99694.03
2023-04-27T04:41:35.565Z,99689.97
2023-04-27T04:44:03.528Z,99685.91
2023-04-27T04:46:32.302Z,99687.19
2023-04-27T04:49:00.285Z,99685.81
2023-04-27T04:51:29.615Z,99690.97
2023-04-27T04:53:58.367Z,99687.38
2023-04-27T04:56:27.340Z,99696.41
2023-04-27T04:58:55.311Z,99703.25
2023-04-27T05:01:23.354Z,99699.09
2023-04-27T05:03:51.551Z,99695.59
2023-04-27T05:06:19.540Z,99705.72
2023-04-27T05:08:49.144Z,99697.59
2023-04-27T05:11:17.122Z,99711.88
2023-04-27T05:13:45.031Z,99701.97
2023-04-27T05:16:13.008Z,99703.47
2023-04-27T05:18:41.697Z,99700.03
2023-04-27T05:21:15.167Z,99702.00
2023-04-27T05:23:43.168Z,99701.91
2023-04-27T05:26:15.618Z,99705.25
2023-04-27T05:28:43.565Z,99693.66
2023-04-27T05:31:11.553Z,99701.56
2023-04-27T05:33:39.504Z,99702.97
2023-04-27T05:36:07.856Z,99699.88
2023-04-27T05:38:37.495Z,99708.78
2023-04-27T05:41:05.499Z,99708.50
2023-04-27T05:43:35.537Z,99706.94
2023-04-27T05:46:03.508Z,99715.03
2023-04-27T05:48:31.464Z,99704.03
2023-04-27T05:51:02.859Z,99706.97
2023-04-27T05:53:31.078Z,99713.38
2023-04-27T05:56:01.146Z,99712.41
2023-04-27T05:58:29.141Z,99710.63
2023-04-27T06:00:58.470Z,99718.63
2023-04-27T06:03:26.697Z,99726.50
2023-04-27T06:05:58.993Z,99718.75
2023-04-27T06:08:27.133Z,99720.06
2023-04-27T06:10:55.237Z,99725.06
2023-04-27T06:13:23.233Z,99722.75
2023-04-27T06:15:51.219Z,99725.50
2023-04-27T06:18:20.614Z,99729.78
2023-04-27T06:20:48.563Z,99720.59
2023-04-27T06:23:16.500Z,99723.41
2023-04-27T06:25:45.425Z,99721.78
2023-04-27T06:28:13.423Z,99731.91
2023-04-27T06:30:41.373Z,99731.97
2023-04-27T06:33:10.208Z,99737.88
2023-04-27T06:35:39.599Z,99727.00
2023-04-27T06:38:08.043Z,99719.94
2023-04-27T06:40:37.087Z,99723.44
2023-04-27T06:43:05.013Z,99729.78
2023-04-27T06:45:32.909Z,99727.31
2023-04-27T06:48:01.131Z,99724.03
2023-04-27T06:50:29.284Z,99724.94
2023-04-27T06:52:58.604Z,99725.53
2023-04-27T06:55:26.559Z,99733.97
2023-04-27T06:57:54.470Z,99736.09
2023-04-27T07:00:22.788Z,99737.56
2023-04-27T07:02:51.486Z,99739.97
2023-04-27T07:05:19.669Z,99738.00
2023-04-27T07:07:47.858Z,99734.38
2023-04-27T07:10:17.220Z,99736.97
2023-04-27T07:12:45.176Z,99738.31
2023-04-27T07:15:13.214Z,99741.03
2023-04-27T07:17:41.634Z,99737.34
2023-04-27T07:20:10.225Z,99736.84
2023-04-27T07:22:38.146Z,99735.03
2023-04-27T07:25:06.795Z,99743.72
2023-04-27T07:27:36.285Z,99734.13
2023-04-27T07:30:04.472Z,99741.56
2023-04-27T07:32:32.634Z,99742.09
2023-04-27T07:35:00.930Z,99742.16
2023-04-27T07:37:28.883Z,99728.94
2023-04-27T07:39:56.845Z,99748.78
2023-04-27T07:42:25.204Z,99744.66
2023-04-27T07:44:54.548Z,99745.44
2023-04-27T07:47:22.525Z,99748.63
2023-04-27T07:49:50.938Z,99748.16
2023-04-27T07:52:18.921Z,99758.41
2023-04-27T07:54:46.954Z,99744.41
2023-04-27T07:57:14.880Z,99753.53
2023-04-27T07:59:42.812Z,99757.13
2023-04-27T08:02:19.646Z,99757.63
2023-04-27T08:04:48.794Z,99757.84
2023-04-27T08:07:17.621Z,99765.31
2023-04-27T08:09:45.789Z,99769.84
2023-04-27T08:12:13.778Z,99767.50
2023-04-27T08:14:42.070Z,99772.28
2023-04-27T08:17:11.427Z,99770.22
2023-04-27T08:19:39.657Z,99759.31
2023-04-27T08:22:07.905Z,99779.34
2023-04-27T08:24:36.481Z,99771.13
2023-04-27T08:27:04.581Z,99774.94
2023-04-27T08:29:32.716Z,99775.41
2023-04-27T08:32:01.449Z,99772.91
2023-04-27T08:34:30.854Z,99768.38
2023-04-27T08:36:58.787Z,99777.66
2023-04-27T08:39:26.787Z,99771.13
2023-04-27T08:41:54.787Z,99772.47
2023-04-27T08:44:22.719Z,99772.34
2023-04-27T08:46:50.958Z,99767.78
2023-04-27T08:49:19.206Z,99769.97
2023-04-27T08:51:48.675Z,99766.34
2023-04-27T08:54:16.651Z,99773.91
2023-04-27T08:56:44.614Z,99771.06
2023-04-27T08:59:15.809Z,99773.47
2023-04-27T09:01:48.812Z,99772.69
2023-04-27T09:04:17.901Z,99764.88
2023-04-27T09:06:46.181Z,99765.38
2023-04-27T09:09:24.526Z,99766.81
2023-04-27T09:11:52.500Z,99765.94
2023-04-27T09:14:21.393Z,99768.50
2023-04-27T09:16:56.255Z,99760.69
2023-04-27T09:19:27.018Z,99758.16
2023-04-27T09:22:04.766Z,99758.16
2023-04-27T09:24:34.183Z,99753.59
2023-04-27T09:27:03.247Z,99754.69
2023-04-27T09:29:34.837Z,99758.25
2023-04-27T09:32:03.579Z,99758.72
2023-04-27T09:34:41.112Z,99763.34
2023-04-27T09:37:09.986Z,99745.25
2023-04-27T09:39:39.386Z,99756.69
2023-04-27T09:42:08.461Z,99748.78
2023-04-27T09:44:36.471Z,99745.09
2023-04-27T09:47:04.932Z,99740.75
2023-04-27T09:49:32.864Z,99739.25
2023-04-27T09:52:00.893Z,99742.78
2023-04-27T09:54:29.430Z,99740.03
2023-04-27T09:57:04.638Z,99739.59
2023-04-27T09:59:51.817Z,99739.00
2023-04-27T10:02:25.139Z,99735.50
2023-04-27T10:05:13.144Z,99733.03
2023-04-27T10:07:41.526Z,99726.66
2023-04-27T10:10:16.688Z,99726.00
2023-04-27T10:12:46.036Z,99729.72
2023-04-27T10:15:14.651Z,99722.72
2023-04-27T10:17:49.367Z,99713.50
2023-04-27T10:20:17.894Z,99730.25
2023-04-27T10:22:47.625Z,99730.72
2023-04-27T10:25:18.490Z,99731.41
2023-04-27T10:27:52.769Z,99738.34
2023-04-27T10:30:21.435Z,99731.16
2023-04-27T10:32:53.384Z,99732.06
2023-04-27T10:35:22.180Z,99729.16
2023-04-27T10:37:50.122Z,99726.03
2023-04-27T10:40:19.167Z,99731.06
2023-04-27T10:42:49.547Z,99730.56
2023-04-27T10:45:31.546Z,99728.38
2023-04-27T10:48:01.263Z,99721.97
2023-04-27T10:50:29.405Z,99732.50
2023-04-27T10:53:01.666Z,99723.81
2023-04-27T10:55:29.610Z,99725.41
2023-04-27T10:57:57.572Z,99720.91
2023-04-27T11:00:25.869Z,99717.81
2023-04-27T11:02:55.418Z,99722.06
2023-04-27T11:05:24.850Z,99714.97
2023-04-27T11:07:52.976Z,99719.38
2023-04-27T11:10:20.952Z,99709.28
2023-04-27T11:12:48.917Z,99703.44
2023-04-27T11:15:16.846Z,99687.69
2023-04-27T11:17:44.824Z,99705.50
2023-04-27T11:20:16.529Z,99713.34
2023-04-27T11:22:47.706Z,99701.91
2023-04-27T11:25:15.729Z,99713.84
2023-04-27T11:27:45.245Z,99713.59
2023-04-27T11:30:22.597Z,99711.63
2023-04-27T11:32:50.773Z,99701.63
2023-04-27T11:35:20.100Z,99704.09
2023-04-27T11:37:58.169Z,99708.91
2023-04-27T11:40:27.222Z,99709.13
2023-04-27T11:42:58.779Z,99708.28
2023-04-27T11:45:27.444Z,99711.63
2023-04-27T11:47:55.443Z,99708.91
2023-04-27T11:50:26.809Z,99695.41
2023-04-27T11:52:55.946Z,99705.44
2023-04-27T11:55:24.863Z,99702.16
2023-04-27T11:57:57.964Z,99713.97
2023-04-27T12:00:25.980Z,99709.28
2023-04-27T12:02:54.131Z,99714.25
2023-04-27T12:05:22.521Z,99709.75
2023-04-27T12:07:52.044Z,99714.84
2023-04-27T12:10:20.085Z,99712.72
2023-04-27T12:12:47.995Z,99711.38
2023-04-27T12:15:16.278Z,99709.03
2023-04-27T12:17:44.299Z,99702.41
2023-04-27T12:20:14.640Z,99707.03
2023-04-27T12:22:42.689Z,99712.75
2023-04-27T12:25:12.055Z,99701.28
2023-04-27T12:27:40.011Z,99699.91
2023-04-27T12:30:09.482Z,99703.41
2023-04-27T12:32:37.457Z,99689.72
2023-04-27T12:35:06.350Z,99701.56
2023-04-27T12:37:34.344Z,99687.91
2023-04-27T12:40:02.336Z,99687.38
2023-04-27T12:42:31.643Z,99690.03
2023-04-27T12:44:59.631Z,99687.22
2023-04-27T12:47:49.830Z,99690.81
2023-04-27T12:50:15.950Z,99682.53
2023-04-27T12:52:43.915Z,99679.94
2023-04-27T12:55:21.507Z,99678.84
2023-04-27T12:58:00.679Z,99680.94
2023-04-27T13:00:29.567Z,99687.34
2023-04-27T13:02:58.563Z,99675.69
2023-04-27T13:05:26.786Z,99678.34
2023-04-27T13:07:54.840Z,99671.59
2023-04-27T13:10:22.812Z,99669.22
2023-04-27T13:12:50.733Z,99672.75
2023-04-27T13:15:20.895Z,99671.28
2023-04-27T13:17:49.034Z,99668.50
2023-04-27T13:20:17.159Z,99669.28
2023-04-27T13:22:45.055Z,99661.22
2023-04-27T13:25:13.287Z,99655.66
2023-04-27T13:27:41.187Z,99655.72
2023-04-27T13:30:10.372Z,99652.44
2023-04-27T13:32:39.747Z,99649.09
2023-04-27T13:35:08.745Z,99651.41
2023-04-27T13:37:36.699Z,99659.53
2023-04-27T13:40:06.614Z,99652.84
2023-04-27T13:42:34.998Z,99660.88
2023-04-27T13:45:04.275Z,99660.88
2023-04-27T13:47:36.938Z,99659.03
2023-04-27T13:50:08.189Z,99663.78
2023-04-27T13:52:36.446Z,99648.66
2023-04-27T13:55:04.449Z,99656.78
2023-04-27T13:57:32.363Z,99661.56
2023-04-27T14:00:00.556Z,99658.69
2023-04-27T14:02:32.161Z,99664.28
2023-04-27T14:05:00.217Z,99673.94
2023-04-27T14:07:30.780Z,99669.53
2023-04-27T14:09:58.721Z,99673.53
2023-04-27T14:12:26.638Z,99673.13
2023-04-27T14:14:55.442Z,99676.47
2023-04-27T14:17:24.166Z,99688.81
2023-04-27T14:19:52.115Z,99700.28
2023-04-27T14:22:20.059Z,99691.81
2023-04-27T14:24:49.366Z,99707.94
2023-04-27T14:27:17.301Z,99723.88
2023-04-27T14:29:45.233Z,99734.97
2023-04-27T14:32:13.494Z,99730.41
2023-04-27T14:34:41.939Z,99734.06
2023-04-27T14:37:09.917Z,99728.22
2023-04-27T14:39:37.898Z,99692.41
2023-04-27T14:42:07.270Z,99685.47
2023-04-27T14:44:36.283Z,99687.34
2023-04-27T14:47:04.260Z,99680.72
2023-04-27T14:49:32.233Z,99671.78
2023-04-27T14:52:03.384Z,99677.28
2023-04-27T14:54:31.459Z,99675.31
2023-04-27T14:57:01.107Z,99677.22
2023-04-27T14:59:30.907Z,99679.34
2023-04-27T15:01:59.002Z,99686.75
2023-04-27T15:04:27.074Z,99688.34
2023-04-27T15:06:55.108Z,99686.75
2023-04-27T15:09:23.033Z,99687.03
2023-04-27T15:11:51.014Z,99692.09
2023-04-27T15:14:18.975Z,99690.88
2023-04-27T15:16:48.344Z,99691.00
2023-04-27T15:19:16.595Z,99689.72
2023-04-27T15:21:44.596Z,99689.72
2023-04-27T15:24:12.540Z,99698.16
2023-04-27T15:26:40.963Z,99698.84
2023-04-27T15:29:09.067Z,99690.28
2023-04-27T15:31:37.152Z,99694.66
2023-04-27T15:34:06.615Z,99695.28
2023-04-27T15:36:34.552Z,99687.41
2023-04-27T15:39:02.495Z,99696.50
2023-04-27T15:41:30.479Z,99697.81
2023-04-27T15:43:58.416Z,99702.94
2023-04-27T15:46:26.405Z,99704.69
2023-04-27T15:48:54.380Z,99708.44
2023-04-27T15:51:23.686Z,99712.06
2023-04-27T15:53:51.608Z,99692.56
2023-04-27T15:56:19.591Z,99707.81
2023-04-27T15:58:47.528Z,99708.22
2023-04-27T16:01:15.634Z,99709.09
2023-04-27T16:03:43.892Z,99709.59
2023-04-27T16:06:11.960Z,99723.44
2023-04-27T16:08:41.262Z,99721.78
2023-04-27T16:11:09.196Z,99723.84
2023-04-27T16:13:37.163Z,99726.16
2023-04-27T16:16:05.421Z,99725.78
2023-04-27T16:18:34.824Z,99723.19
2023-04-27T16:21:04.007Z,99737.16
2023-04-27T16:23:32.005Z,99730.75
2023-04-27T16:26:01.289Z,99732.22
2023-04-27T16:28:29.201Z,99723.50
2023-04-27T16:30:57.132Z,99734.75
2023-04-27T16:33:25.722Z,99730.13
2023-04-27T16:35:53.706Z,99741.22
2023-04-27T16:38:21.625Z,99733.97
2023-04-27T16:40:49.837Z,99742.06
2023-04-27T16:43:19.287Z,99742.97
2023-04-27T16:45:47.309Z,99751.41
2023-04-27T16:48:15.292Z,99751.31
2023-04-27T16:50:43.227Z,99757.34
2023-04-27T16:53:13.658Z,99759.59
2023-04-27T16:55:41.742Z,99718.28
2023-04-27T16:58:09.696Z,99756.34
2023-04-27T17:00:39.651Z,99756.34
2023-04-27T17:03:07.703Z,99770.06
2023-04-27T17:05:35.863Z,99758.00
2023-04-27T17:08:05.512Z,99772.13
2023-04-27T17:10:33.636Z,99776.41
2023-04-27T17:13:01.587Z,99800.34
2023-04-27T17:15:29.569Z,99825.72
2023-04-27T17:17:59.247Z,99865.47
2023-04-27T17:20:27.232Z,99894.44
2023-04-27T17:22:55.157Z,99892.38
2023-04-27T17:25:23.291Z,99889.06
2023-04-27T17:27:51.398Z,99885.66
2023-04-27T17:30:19.422Z,99883.69
2023-04-27T17:32:47.370Z,99873.50
2023-04-27T17:35:16.683Z,99873.13
2023-04-27T17:37:44.733Z,99871.13
2023-04-27T17:40:14.024Z,99876.16
2023-04-27T17:42:42.021Z,99879.09
2023-04-27T17:45:11.282Z,99876.78
2023-04-27T17:47:39.264Z,99878.78
2023-04-27T17:50:08.509Z,99886.47
2023-04-27T17:52:37.794Z,99895.53
2023-04-27T17:55:06.626Z,99891.13
2023-04-27T17:57:34.699Z,99902.50
2023-04-27T18:00:02.614Z,99911.75
2023-04-27T18:02:30.683Z,99909.06
2023-04-27T18:04:58.716Z,99900.81
2023-04-27T18:07:26.756Z,99898.81
2023-04-27T18:09:57.453Z,99894.75
2023-04-27T18:12:25.841Z,99891.41
2023-04-27T18:14:53.802Z,99895.09
2023-04-27T18:17:21.979Z,99903.84
2023-04-27T18:20:00.949Z,99904.66
2023-04-27T18:22:36.326Z,99900.47
2023-04-27T18:25:06.331Z,99903.69
2023-04-27T18:27:34.262Z,99902.50
2023-04-27T18:30:02.403Z,99904.84
2023-04-27T18:32:31.194Z,99905.00
2023-04-27T18:34:59.144Z,99905.84
2023-04-27T18:37:27.068Z,99915.09
2023-04-27T18:39:55.038Z,99906.69
2023-04-27T18:42:24.351Z,99912.91
2023-04-27T18:44:54.692Z,99911.75
2023-04-27T18:47:22.707Z,99912.91
2023-04-27T18:49:50.739Z,99919.28
2023-04-27T18:52:18.667Z,99922.69
2023-04-27T18:54:46.676Z,99925.66
2023-04-27T18:57:14.612Z,99916.94
2023-04-27T18:59:43.983Z,99926.69
2023-04-27T19:02:11.911Z,99926.38
2023-04-27T19:04:42.983Z,99930.25
2023-04-27T19:07:17.378Z,99930.78
2023-04-27T19:09:45.612Z,99923.25
2023-04-27T19:12:13.718Z,99926.59
2023-04-27T19:14:43.066Z,99933.50
2023-04-27T19:17:11.691Z,99932.50
2023-04-27T19:19:39.709Z,99928.09
2023-04-27T19:22:08.247Z,99941.53
2023-04-27T19:24:36.279Z,99935.13
2023-04-27T19:27:04.245Z,99933.44
2023-04-27T19:29:32.195Z,99929.41
2023-04-27T19:32:02.169Z,99935.44
2023-04-27T19:34:30.130Z,99943.50
2023-04-27T19:36:58.030Z,99941.97
2023-04-27T19:39:26.837Z,99944.47
2023-04-27T19:41:54.803Z,99937.09
2023-04-27T19:44:22.778Z,99942.63
2023-04-27T19:46:50.729Z,99941.78
2023-04-27T19:49:20.131Z,99948.50
2023-04-27T19:51:48.067Z,99950.19
2023-04-27T19:54:16.975Z,99944.31
2023-04-27T19:56:45.094Z,99950.53
2023-04-27T19:59:13.133Z,99949.84
2023-04-27T20:01:41.222Z,99955.91
2023-04-27T20:04:09.465Z,99957.91
2023-04-27T20:06:40.822Z,99954.22
2023-04-27T20:09:08.965Z,99955.56
2023-04-27T20:11:36.871Z,99947.81
2023-04-27T20:14:04.792Z,99949.47
2023-04-27T20:16:32.781Z,99951.16
2023-04-27T20:19:00.784Z,99949.16
2023-04-27T20:21:29.510Z,99962.38
2023-04-27T20:23:58.889Z,99952.47
2023-04-27T20:26:27.184Z,99964.56
2023-04-27T20:28:55.118Z,99962.53
2023-04-27T20:31:23.271Z,99964.22
2023-04-27T20:33:51.226Z,99965.28
2023-04-27T20:36:19.176Z,99966.63
2023-04-27T20:38:47.202Z,99970.97
2023-04-27T20:41:16.517Z,99966.09
2023-04-27T20:43:44.778Z,99974.34
2023-04-27T20:46:13.011Z,99977.66
2023-04-27T20:48:41.131Z,99971.47
2023-04-27T20:51:09.314Z,99982.03
2023-04-27T20:53:37.250Z,99981.03
2023-04-27T20:56:05.527Z,99981.88
2023-04-27T20:58:34.859Z,99982.72
2023-04-27T21:01:02.806Z,99986.06
2023-04-27T21:03:30.912Z,99992.75
2023-04-27T21:05:58.870Z,99987.75
2023-04-27T21:08:27.971Z,99993.00
2023-04-27T21:10:57.200Z,99987.94
2023-04-27T21:13:25.217Z,99982.41
2023-04-27T21:15:54.552Z,99984.59
2023-04-27T21:18:29.549Z,99987.09
2023-04-27T21:20:58.480Z,99981.41
2023-04-27T21:23:26.471Z,99986.47
2023-04-27T21:25:54.421Z,99990.19
2023-04-27T21:28:22.343Z,99989.88
2023-04-27T21:30:50.339Z,99986.50
2023-04-27T21:33:19.639Z,99985.03
2023-04-27T21:35:47.526Z,99983.50
2023-04-27T21:38:15.618Z,99992.91
2023-04-27T21:40:43.656Z,99984.22
2023-04-27T21:43:11.616Z,99984.88
2023-04-27T21:45:39.674Z,99991.94
2023-04-27T21:48:07.668Z,99995.31
2023-04-27T21:50:37.002Z,99992.59
2023-04-27T21:53:04.886Z,99999.50
2023-04-27T21:55:32.822Z,100007.38
2023-04-27T21:58:00.724Z,100009.69
2023-04-27T22:00:28.689Z,100012.56
2023-04-27T22:02:56.827Z,100005.34
2023-04-27T22:05:24.995Z,100017.75
2023-04-27T22:07:54.319Z,100017.44
2023-04-27T22:10:22.602Z,100014.06
2023-04-27T22:12:50.598Z,100012.91
2023-04-27T22:15:19.839Z,100008.38
2023-04-27T22:17:47.800Z,100019.09
2023-04-27T22:20:16.205Z,100015.38
2023-04-27T22:22:44.144Z,100018.25
2023-04-27T22:25:13.459Z,100013.06
2023-04-27T22:27:45.175Z,100015.75
2023-04-27T22:30:15.246Z,100015.06
2023-04-27T22:32:43.553Z,100021.63
2023-04-27T22:35:22.584Z,100018.94
2023-04-27T22:37:54.826Z,100023.47
2023-04-27T22:40:24.533Z,100025.16
2023-04-27T22:42:52.537Z,100028.31
2023-04-27T22:45:20.443Z,100038.22
2023-04-27T22:47:49.344Z,100024.81
2023-04-27T22:50:17.470Z,100034.00
2023-04-27T22:52:45.420Z,100035.53
2023-04-27T22:55:13.423Z,100043.06
2023-04-27T22:57:43.988Z,100039.03
2023-04-27T23:00:12.959Z,100046.94
2023-04-27T23:02:41.103Z,100048.94
2023-04-27T23:05:10.880Z,100062.34
2023-04-27T23:07:39.003Z,100070.53
2023-04-27T23:10:08.150Z,100064.66
2023-04-27T23:12:36.577Z,100069.72
2023-04-27T23:15:06.586Z,100071.09
2023-04-27T23:17:34.590Z,100076.44
2023-04-27T23:20:06.929Z,100072.41
2023-04-27T23:22:36.922Z,100073.78
2023-04-27T23:25:05.715Z,100061.69
2023-04-27T23:27:33.617Z,100076.47
2023-04-27T23:30:01.632Z,100070.44
2023-04-27T23:32:30.993Z,100070.44
2023-04-27T23:34:59.075Z,100073.47
2023-04-27T23:37:27.013Z,100078.50
2023-04-27T23:39:54.956Z,100072.78
2023-04-27T23:42:23.263Z,100073.47
2023-04-27T23:44:51.316Z,100087.06
2023-04-27T23:47:19.258Z,100087.91
2023-04-27T23:49:48.543Z,100085.75
2023-04-27T23:52:16.456Z,100086.75
2023-04-27T23:54:44.366Z,100081.22
2023-04-27T23:57:12.285Z,100078.16
2023-04-27T23:59:40.248Z,100071.78
